Weather observations for the past three days for
Windom Municipal Airport
Imperial (Metric)
Date Time (cdt) Wind (mph) Vis. (mi.) Weather Sky Cond. Temperature (ºF) Relative Humidity Wind Chill (°F) Heat Index (°F) Pressure Precipitation (in)
Air Dwpt 6 hour altimeter (in) sea level (mb) 1 hr 3 hr 6 hr
Max. Min.
02 17:15 SW 14 G 20 10.00 Fair CLR 66.2 30.2 26% 29.91 0.0
02 16:55 W 17 10.00 Fair CLR 66.2 30.2 26% 29.91 0.0
02 16:35 SW 9 10.00 Fair CLR 66.2 32 28% 29.93 0.0
02 16:15 SW 15 G 18 10.00 Fair CLR 66.2 32 28% 29.93 0.0
02 15:55 SW 12 G 21 10.00 Partly Cloudy SCT080 66.2 32 28% 29.94 0.0
02 15:35 SW 13 G 21 10.00 Partly Cloudy SCT080 66.2 32 28% 29.95 0.0
02 15:15 SW 9 G 21 10.00 Fair CLR 66.2 32 28% 29.96 0.0
02 14:55 W 14 G 22 10.00 Fair CLR 66.2 32 28% 29.97 0.0
02 14:35 W 13 G 24 10.00 Fair CLR 66.2 32 28% 29.98 0.0
02 14:15 SW 10 G 23 10.00 Fair CLR 64.4 32 30% 29.99 0.0
02 13:55 SW 15 G 18 10.00 Fair CLR 64.4 32 30% 30 0.0
02 13:35 W 14 G 18 10.00 Fair CLR 62.6 30.2 30% 30.01 0.0
02 13:15 SW 8 G 18 10.00 Fair CLR 62.6 30.2 30% 30.02 0.0
02 12:55 SW 6 G 17 10.00 Fair CLR 62.6 32 32% 30.03 0.0
02 12:35 SW 14 G 18 10.00 Fair CLR 62.6 30.2 30% 30.04 0.0
02 12:15 W 8 G 20 10.00 Fair CLR 60.8 30.2 31% 30.05 0.0
02 11:55 SW 14 G 17 10.00 Fair CLR 60.8 30.2 31% 30.06 0.0
02 11:35 SW 9 G 18 10.00 Fair CLR 59 28.4 31% 30.06 0.0
02 11:15 SW 13 G 20 10.00 Fair CLR 57.2 28.4 33% 30.07 0.0
02 10:55 SW 13 G 17 10.00 Fair CLR 57.2 28.4 33% 30.08 0.0
02 10:35 SW 12 10.00 Fair CLR 55.4 28.4 36% 30.08 0.0
02 10:15 SW 14 10.00 Fair CLR 55.4 28.4 36% 30.09 0.0
02 09:55 SW 12 10.00 Fair CLR 55.4 30.2 38% 30.09 0.0
02 09:35 SW 15 10.00 Fair CLR 53.6 28.4 38% 30.1 0.0
02 09:15 SW 14 10.00 Fair CLR 51.8 28.4 41% 30.1 0.0
02 08:55 SW 13 10.00 Fair CLR 50 30.2 47% 46 30.1 0.0
02 08:35 SW 10 10.00 Fair CLR 48.2 30.2 50% 44 30.1 0.0
02 08:15 SW 7 10.00 Fair CLR 44.6 32 61% 41 30.11 0.0
02 07:55 SW 5 10.00 Fair CLR 42.8 30.2 61% 41 30.11 0.0
02 07:35 SW 3 10.00 Fair CLR 39.2 30.2 70% 30.11 0.0
02 07:15 SW 3 10.00 Fair CLR 37.4 28.4 70% 30.11 0.0
02 06:55 SW 3 10.00 Fair CLR 35.6 28.4 75% 30.11 0.0
02 06:35 SW 3 10.00 Fair CLR 33.8 26.6 75% 30.11 0.0
02 06:15 SW 3 10.00 Fair CLR 33.8 26.6 75% 30.11 0.0
02 05:55 W 7 10.00 Fair CLR 33.8 26.6 75% 28 30.11 0.0
02 05:35 SW 5 10.00 Fair CLR 33.8 28.4 81% 30 30.12 0.0
02 05:15 W 5 10.00 Fair CLR 33.8 28.4 81% 30 30.11 0.0
02 04:55 W 5 10.00 Fair CLR 33.8 28.4 81% 30 30.12 0.0
02 04:35 Calm 10.00 Fair CLR 35.6 28.4 75% 30.11 0.0
02 04:15 Calm 10.00 Fair CLR 35.6 28.4 75% 30.11 0.0
02 03:55 Calm 10.00 Fair CLR 35.6 28.4 75% 30.11 0.0
02 03:35 W 3 10.00 Fair CLR 35.6 28.4 75% 30.11 0.0
02 03:15 Calm 10.00 Fair CLR 33.8 28.4 81% 30.11 0.0
02 02:55 W 3 10.00 Fair CLR 35.6 28.4 75% 30.11 0.0
02 02:35 Calm 10.00 Fair CLR 35.6 28.4 75% 30.11 0.0
02 02:15 Calm 10.00 Fair CLR 35.6 28.4 75% 30.11 0.0
02 01:55 W 5 10.00 Fair CLR 35.6 28.4 75% 32 30.12 0.0
02 01:35 Calm 10.00 Fair CLR 35.6 30.2 81% 30.12 0.0
02 01:15 Calm 10.00 Fair CLR 35.6 30.2 81% 30.12 0.0
02 00:55 Calm 10.00 Fair CLR 37.4 28.4 70% 30.12 0.0
02 00:35 Calm 10.00 Fair CLR 37.4 28.4 70% 30.12 0.0
02 00:15 Calm 10.00 Fair CLR 37.4 28.4 70% 30.12 0.0
01 23:55 Calm 10.00 Fair CLR 37.4 30.2 75% 30.12 0.0
01 23:35 Calm 10.00 Fair CLR 37.4 28.4 70% 30.12 0.0
01 23:15 Calm 10.00 Fair CLR 37.4 28.4 70% 30.12 0.0
01 22:55 Calm 10.00 Fair CLR 39.2 30.2 70% 30.11 0.0
01 22:35 Calm 10.00 Fair CLR 41 28.4 61% 30.12 0.0
01 22:15 Calm 10.00 Fair CLR 42.8 28.4 57% 30.12 0.0
01 21:55 Calm 10.00 Fair CLR 41 30.2 66% 30.12 0.0
01 21:35 Calm 10.00 Fair CLR 41 28.4 61% 30.11 0.0
01 21:15 N 3 10.00 Fair CLR 42.8 28.4 57% 30.11 0.0
01 20:55 N 3 10.00 Fair CLR 44.6 26.6 49% 30.1 0.0
01 20:35 Calm 10.00 Fair CLR 44.6 26.6 49% 30.1 0.0
01 20:15 N 3 10.00 Fair CLR 46.4 26.6 46% 30.09 0.0
01 19:55 N 7 10.00 Partly Cloudy SCT060 48.2 26.6 43% 46 30.09 0.0
01 19:35 N 10 10.00 Mostly Cloudy BKN060 50 26.6 40% 46 30.09 0.0
01 19:15 NW 10 10.00 Partly Cloudy SCT070 51.8 24.8 35% 30.09 0.0
01 18:55 NW 10 10.00 Partly Cloudy SCT070 50 26.6 40% 46 30.09 0.0
01 18:35 NW 7 G 12 10.00 Partly Cloudy SCT070 50 26.6 40% 48 30.09 0.0
01 18:15 NW 10 10.00 Partly Cloudy SCT060 51.8 26.6 38% 30.08 0.0
01 17:55 W 9 10.00 Mostly Cloudy BKN060 51.8 26.6 38% 30.08 0.0
01 17:35 NE 8 10.00 Overcast OVC060 51.8 26.6 38% 30.08 0.0
01 17:15 N 10 10.00 Mostly Cloudy BKN060 51.8 26.6 38% 30.08 0.0
01 16:55 NW 9 10.00 Partly Cloudy SCT060 53.6 26.6 35% 30.08 0.0
01 16:35 NW 7 10.00 Partly Cloudy SCT060 51.8 26.6 38% 30.08 0.0
01 16:15 N 12 10.00 Mostly Cloudy BKN060 50 26.6 40% 46 30.08 0.0
01 15:55 NW 7 G 10 10.00 Mostly Cloudy BKN060 51.8 26.6 38% 30.09 0.0
01 15:35 NW 6 10.00 Partly Cloudy SCT060 51.8 26.6 38% 30.09 0.0
01 15:15 NW 7 G 12 10.00 Mostly Cloudy BKN060 51.8 28.4 41% 30.09 0.0
01 14:55 NW 8 10.00 Mostly Cloudy BKN060 51.8 28.4 41% 30.09 0.0
01 14:35 N 10 10.00 Overcast OVC060 48.2 28.4 46% 44 30.09 0.0
01 14:15 N 10 G 20 10.00 Overcast OVC050 50 28.4 43% 46 30.09 0.0
01 13:55 N 6 10.00 Overcast SCT048 OVC060 48.2 28.4 46% 46 30.09 0.0
01 13:35 N 8 10.00 Overcast SCT050 OVC055 50 30.2 47% 47 30.09 0.0
01 13:15 NE 10 10.00 Mostly Cloudy SCT048 BKN060 50 30.2 47% 46 30.09 0.0
01 12:55 N 9 10.00 Mostly Cloudy BKN048 BKN050 48.2 30.2 50% 45 30.09 0.0
01 12:35 N 9 G 14 10.00 Overcast BKN048 OVC050 48.2 30.2 50% 45 30.1 0.0
01 12:15 N 12 G 17 10.00 Mostly Cloudy SCT046 BKN050 48.2 28.4 46% 44 30.09 0.0
01 11:55 N 13 G 18 10.00 Partly Cloudy SCT042 SCT050 48.2 30.2 50% 43 30.09 0.0
01 11:35 N 13 G 20 10.00 Partly Cloudy SCT036 46.4 32 57% 41 30.09 0.0
01 11:15 N 15 G 20 10.00 Partly Cloudy SCT034 48.2 32 54% 43 30.09 0.0
01 10:55 N 12 G 18 10.00 Fair CLR 46.4 33.8 62% 42 30.09 0.0
01 10:35 NW 14 G 20 10.00 Fair CLR 46.4 35.6 66% 41 30.09 0.0
01 10:15 N 15 10.00 Fair CLR 44.6 35.6 71% 38 30.08 0.0
01 09:55 NW 16 10.00 Fair CLR 44.6 35.6 71% 38 30.08 0.0
01 09:15 NW 15 10.00 Fair CLR 41 35.6 81% 34 30.08 0.0
01 08:55 NW 16 10.00 Fair CLR 39.2 35.6 87% 31 30.08 0.0
01 08:35 NW 15 10.00 Fair CLR 39.2 33.8 81% 31 30.07 0.0
01 08:15 NW 15 G 18 10.00 Fair CLR 39.2 33.8 81% 31 30.07 0.0
01 07:55 NW 15 10.00 Fair CLR 37.4 33.8 87% 29 30.07 0.0
01 07:35 NW 13 10.00 Fair CLR 37.4 33.8 87% 30 30.06 0.0
01 07:15 NW 13 10.00 Fair CLR 35.6 33.8 93% 28 30.06 0.0
01 06:55 NW 13 10.00 Fair CLR 35.6 32 87% 28 30.05 0.0
01 06:35 NW 12 10.00 Fair CLR 35.6 33.8 93% 28 30.04 0.0
01 06:15 NW 13 10.00 Fair CLR 35.6 33.8 93% 28 30.04 0.0
01 05:55 NW 12 10.00 Fair CLR 35.6 33.8 93% 28 30.04 0.0
01 05:35 NW 9 10.00 Fair CLR 35.6 33.8 93% 29 30.03 0.0
01 05:15 NW 10 10.00 Fair CLR 37.4 35.6 93% 31 30.03 0.0
01 04:55 NW 9 10.00 Fair CLR 37.4 35.6 93% 31 30.03 0.0
01 04:35 NW 10 10.00 Fair CLR 37.4 35.6 93% 31 30.03 0.0
01 04:15 NW 9 10.00 Fair CLR 37.4 35.6 93% 31 30.03 0.0
01 03:55 NW 8 10.00 Fair CLR 37.4 35.6 93% 32 30.03 0.0
01 03:35 NW 8 10.00 Fair CLR 37.4 35.6 93% 32 30.03 0.0
01 03:15 NW 7 10.00 Fair CLR 37.4 35.6 93% 33 30.03 0.0
01 02:55 NW 6 10.00 Fair CLR 37.4 37.4 100% 33 30.04 0.0
01 02:35 W 6 10.00 Partly Cloudy SCT070 37.4 37.4 100% 33 30.03 0.0
01 02:15 W 5 10.00 Mostly Cloudy SCT070 BKN090 39.2 37.4 93% 36 30.04 0.0
01 01:55 W 3 10.00 Overcast OVC100 39.2 37.4 93% 30.04 0.0
01 01:35 NW 3 10.00 Overcast OVC100 41 39.2 93% 30.04 0.0
01 01:15 Calm 10.00 Overcast SCT050 OVC100 42.8 39.2 87% 30.04 0.0
01 00:55 Calm 10.00 Overcast SCT042 BKN050 OVC090 42.8 39.2 87% 30.04 0.0
01 00:35 W 5 10.00 Light Rain SCT028 SCT039 OVC050 42.8 39.2 87% 41 30.04 0.0
01 00:15 Calm 10.00 Light Rain BKN050 OVC070 42.8 39.2 87% 30.04 0.0
30 23:55 Calm 10.00 Overcast SCT030 SCT050 OVC070 42.8 39.2 87% 30.04 0.0
30 23:35 NW 7 10.00 Rain BKN031 BKN040 OVC110 42.8 37.4 81% 39 30.04 0.0
30 23:15 N 3 10.00 Mostly Cloudy SCT041 BKN110 39.2 37.4 93% 30.03 0.0
30 22:55 Calm 10.00 Partly Cloudy SCT095 42.8 37.4 81% 30.03 0.0
30 22:35 N 3 10.00 Overcast SCT055 OVC085 42.8 37.4 81% 30.04 0.0
30 22:15 N 5 10.00 Overcast OVC075 44.6 37.4 76% 43 30.04 0.0
30 21:55 NW 5 10.00 Overcast SCT065 BKN075 OVC085 44.6 37.4 76% 43 30.04 0.0
30 21:35 NW 3 10.00 Overcast SCT031 BKN065 OVC085 46.4 37.4 71% 30.03 0.0
30 21:15 NW 6 10.00 Light Rain SCT030 BKN050 OVC075 46.4 37.4 71% 44 30.03 0.0
30 20:55 NW 8 10.00 Light Rain SCT036 BKN044 OVC050 46.4 37.4 71% 43 30.03 0.0
30 20:35 NW 13 10.00 Overcast BKN050 OVC060 46.4 35.6 66% 41 30.03 0.0
30 20:15 NW 14 G 22 10.00 Light Drizzle SCT040 BKN060 OVC080 48.2 35.6 62% 43 30.02 0.0
30 19:55 NW 3 10.00 Mostly Cloudy SCT060 SCT075 BKN100 48.2 33.8 58% 30.01 0.0
30 19:35 NW 3 10.00 Mostly Cloudy SCT075 BKN090 50 32 50% 30.01 0.0
30 19:15 NW 3 10.00 Mostly Cloudy BKN090 50 33.8 54% 30.01 0.0
30 18:55 NW 5 10.00 Partly Cloudy SCT075 48.2 33.8 58% 47 30.02 0.0
30 18:35 W 6 10.00 Mostly Cloudy BKN075 51.8 33.8 50% 30.02 0.0
30 18:15 W 13 10.00 Mostly Cloudy BKN075 51.8 33.8 50% 30.03 0.0
30 17:55 NW 9 10.00 Mostly Cloudy BKN075 50 33.8 54% 47 30.04 0.0
30 17:35 NW 15 G 22 10.00 Light Drizzle SCT032 SCT050 BKN075 48.2 35.6 62% 43 30.04 0.0
30 16:55 NW 8 G 16 10.00 Mostly Cloudy SCT036 BKN055 53.6 28.4 38% 30.03 0.0
30 16:35 W 15 10.00 Overcast SCT036 BKN065 OVC075 51.8 28.4 41% 30.03 0.0
30 16:15 NW 12 G 20 10.00 Mostly Cloudy SCT055 BKN070 BKN080 51.8 26.6 38% 30.04 0.0
30 15:55 N 20 10.00 Mostly Cloudy BKN055 53.6 28.4 38% 30.04 0.0
30 15:35 NW 16 G 24 10.00 Mostly Cloudy SCT055 BKN075 53.6 28.4 38% 30.05 0.0
30 15:15 NW 18 G 23 10.00 Mostly Cloudy SCT065 BKN075 51.8 28.4 41% 30.06 0.0
30 14:55 N 15 G 24 10.00 Partly Cloudy SCT065 SCT080 51.8 28.4 41% 30.07 0.0
30 14:35 NW 20 10.00 Mostly Cloudy SCT050 SCT065 BKN080 51.8 30.2 44% 30.07 0.0
30 14:15 NW 16 G 23 10.00 Mostly Cloudy SCT050 BKN065 BKN070 50 28.4 43% 45 30.07 0.0
30 13:55 NW 14 G 18 10.00 Mostly Cloudy SCT050 SCT065 BKN080 51.8 28.4 41% 30.08 0.0
30 13:35 NW 14 G 25 10.00 Mostly Cloudy BKN050 BKN055 50 30.2 47% 45 30.08 0.0
30 13:15 N 14 G 25 10.00 Mostly Cloudy BKN048 BKN055 50 30.2 47% 45 30.09 0.0
30 12:55 N 16 G 23 10.00 Mostly Cloudy BKN046 50 30.2 47% 45 30.09 0.0
30 12:35 N 14 G 20 10.00 Partly Cloudy SCT044 48.2 30.2 50% 43 30.1 0.0
30 12:15 N 15 G 24 10.00 Partly Cloudy SCT042 48.2 30.2 50% 43 30.1 0.0
30 11:55 NW 16 G 21 10.00 Partly Cloudy SCT042 48.2 30.2 50% 43 30.1 0.0
30 11:35 N 17 G 23 10.00 Fair CLR 48.2 30.2 50% 42 30.1 0.0
30 11:15 N 16 G 23 10.00 Fair CLR 48.2 28.4 46% 43 30.1 0.0
30 10:55 N 18 G 22 10.00 Fair CLR 46.4 28.4 50% 40 30.1 0.0
30 10:35 N 16 G 21 10.00 Fair CLR 46.4 28.4 50% 40 30.1 0.0
30 10:15 N 15 10.00 Fair CLR 44.6 28.4 53% 38 30.1 0.0
30 09:55 N 17 10.00 Fair CLR 44.6 28.4 53% 38 30.09 0.0
30 09:35 N 17 10.00 Fair CLR 44.6 28.4 53% 38 30.09 0.0
30 09:15 N 16 10.00 Fair CLR 42.8 28.4 57% 36 30.09 0.0
30 08:55 N 17 10.00 Partly Cloudy SCT100 42.8 30.2 61% 35 30.09 0.0
30 08:35 N 16 10.00 Mostly Cloudy BKN100 42.8 30.2 61% 36 30.08 0.0
30 08:15 N 15 G 22 10.00 Partly Cloudy SCT100 41 32 70% 34 30.08 0.0
30 07:55 N 15 G 22 10.00 Partly Cloudy SCT100 39.2 32 75% 31 30.08 0.0
30 07:35 N 15 G 22 10.00 Mostly Cloudy BKN100 39.2 32 75% 31 30.08 0.0
30 07:15 N 14 10.00 Partly Cloudy SCT120 37.4 33.8 87% 30 30.08 0.0
30 06:55 N 13 10.00 Partly Cloudy SCT090 39.2 33.8 81% 32 30.07 0.0
30 06:35 NW 10 10.00 Overcast SCT080 OVC090 39.2 33.8 81% 33 30.07 0.0
30 06:15 NW 8 10.00 Overcast SCT050 OVC070 39.2 33.8 81% 34 30.07 0.0
30 05:55 NW 7 10.00 Overcast OVC046 39.2 33.8 81% 35 30.07 0.0
30 05:35 NW 6 10.00 Overcast OVC046 39.2 35.6 87% 36 30.08 0.0
30 05:15 NW 8 10.00 Light Rain BKN048 OVC065 39.2 33.8 81% 34 30.07 0.0
30 04:55 N 15 10.00 Light Rain SCT048 OVC050 39.2 33.8 81% 31 30.06 0.0
30 04:35 N 15 10.00 Light Rain SCT045 OVC055 41 33.8 76% 34 30.07 0.0
30 04:15 N 10 10.00 Light Rain SCT026 BKN055 OVC075 41 33.8 76% 35 30.07 0.0
30 03:55 N 14 G 20 10.00 Overcast SCT055 BKN075 OVC090 42.8 33.8 71% 36 30.07 0.0
30 03:35 N 14 G 17 10.00 Overcast SCT055 OVC090 42.8 33.8 71% 36 30.06 0.0
30 03:15 N 10 10.00 Mostly Cloudy SCT055 SCT080 BKN100 42.8 33.8 71% 38 30.07 0.0
30 02:55 N 13 10.00 Mostly Cloudy BKN080 42.8 33.8 71% 37 30.06 0.0
30 02:35 N 12 10.00 Light Drizzle SCT050 SCT070 OVC090 42.8 35.6 76% 37 30.07 0.0
30 02:15 N 12 10.00 Overcast BKN055 BKN065 OVC095 44.6 33.8 66% 39 30.07 0.0
30 01:55 N 10 10.00 Overcast SCT065 BKN085 OVC095 44.6 33.8 66% 40 30.06 0.0
30 01:35 N 12 10.00 Overcast BKN075 OVC080 46.4 33.8 62% 42 30.07 0.0
30 01:15 N 8 10.00 Partly Cloudy SCT075 42.8 35.6 76% 39 30.06 0.0
30 00:55 N 7 10.00 Partly Cloudy SCT120 44.6 33.8 66% 41 30.06 0.0
30 00:35 NE 5 10.00 Overcast OVC110 46.4 33.8 62% 45 30.05 0.0
30 00:15 NE 5 10.00 Overcast SCT070 OVC100 46.4 35.6 66% 45 30.05 0.0
29 23:55 N 7 10.00 Mostly Cloudy BKN070 46.4 35.6 66% 43 30.06 0.0
29 23:35 N 6 10.00 Mostly Cloudy BKN070 44.6 37.4 76% 42 30.05 0.0
29 23:15 Calm 10.00 Overcast OVC070 46.4 35.6 66% 30.04 0.0
29 22:55 Calm 10.00 Partly Cloudy SCT080 46.4 35.6 66% 30.05 0.0
29 22:35 Calm 10.00 Mostly Cloudy SCT080 BKN090 46.4 37.4 71% 30.04 0.0
29 22:15 Calm 10.00 Overcast BKN080 OVC090 46.4 35.6 66% 30.04 0.0
29 21:55 NE 3 10.00 Overcast OVC090 44.6 35.6 71% 30.04 0.0
29 21:35 Calm 10.00 Mostly Cloudy BKN090 46.4 35.6 66% 30.03 0.0
29 21:15 N 3 10.00 Partly Cloudy SCT090 48.2 35.6 62% 30.03 0.0
29 20:55 N 5 10.00 Fair CLR 48.2 35.6 62% 47 30.02 0.0
29 20:35 NE 3 10.00 Fair CLR 48.2 33.8 58% 30.02 0.0
29 20:15 N 6 10.00 Fair CLR 48.2 33.8 58% 46 30.02 0.0
29 19:55 N 7 10.00 Fair CLR 51.8 33.8 50% 30.02 0.0
29 19:35 N 9 10.00 Partly Cloudy SCT080 53.6 33.8 47% 30.01 0.0
29 19:15 N 8 10.00 Partly Cloudy SCT080 53.6 32 44% 30.01 0.0
29 18:55 N 8 10.00 Mostly Cloudy BKN080 BKN095 55.4 30.2 38% 30.01 0.0
29 18:35 W 12 10.00 Mostly Cloudy BKN080 57.2 28.4 33% 30.02 0.0
29 18:15 W 9 10.00 Mostly Cloudy BKN080 BKN110 57.2 28.4 33% 30.02 0.0
29 17:55 W 12 10.00 Mostly Cloudy SCT075 BKN090 BKN110 57.2 28.4 33% 30.01 0.0
29 17:35 W 16 10.00 Overcast BKN075 OVC090 57.2 28.4 33% 30.01 0.0
Date Time (cdt) Wind (mph) Vis. (mi.) Weather Sky Cond. Air Dwpt Max. Min. Relative Humidity Wind Chill (°F) Heat Index (°F) altimeter (in) sea level (mb) 1 hr 3 hr 6 hr
6 hour
Temperature (ºF) Pressure Precipitation (in)